• Join FlightAware (Why Join?)
  • Login
  • US Flag 
05:36AM EST


 

Airport Tracker/Info


-or-


 

Live Flight TrackerFlight Track Log ✈ KAL1333 ✈ 2014年 07月 04日 ✈ RKSS / GMP - RKJY / RSU

Flight Track Log - Related Links

Times and Time Zones

All times are in EDT time to prevent confusion due to time zone crossing. See the KAL1333 flight status page for this flight to view local times or setup timezone preferences in your user account.

Time Position Orientation Groundspeed Altitude Reporting Facility
EDT Latitude Longitude Course Direction KTS MPH feet Rate Location/Type
11:52PM 37.4733 126.8173 166° South  Level Estimated
11:53PM 37.3855 126.8448 166° South  Level Estimated
11:54PM 37.2977 126.8723 166° South  Level Estimated
11:55PM 37.2099 126.8997 166° South  Level Estimated
11:56PM 37.1220 126.9270 166° South  Level Estimated
11:57PM 37.0342 126.9543 166° South  Level Estimated
11:58PM 36.9464 126.9815 166° South  Level Estimated
11:59PM 36.8455 127.0126 166° South  Level Estimated
12:00AM 36.7447 127.0437 166° South  Level Estimated
12:01AM 36.6438 127.0747 166° South  Level Estimated
12:02AM 36.5429 127.1056 166° South  Level Estimated
12:03AM 36.4421 127.1364 166° South  Level Estimated
12:04AM 36.3412 127.1672 166° South  Level Estimated
12:05AM 36.2403 127.1978 166° South  Level Estimated
12:06AM 36.1394 127.2284 166° South  Level Estimated
12:07AM 36.0384 127.2589 166° South  Level Estimated
12:08AM 35.9375 127.2894 166° South  Level Estimated
12:09AM 35.8496 127.3158 166° South  Level Estimated
12:10AM 35.7617 127.3422 166° South  Level Estimated
12:11AM 35.6738 127.3685 166° South  Level Estimated
12:12AM 35.5859 127.3948 166° South  Level Estimated
12:13AM 35.4980 127.4210 166° South  Level Estimated
12:14AM 35.4100 127.4472 166° South  Level Estimated
12:15AM 35.3221 127.4733 166° South  Level Estimated
12:16AM 35.2341 127.4993 166° South  Level Estimated
12:17AM 35.1462 127.5253 166° South  Level Estimated
12:18AM 35.0582 127.5512 166° South  Level Estimated
12:19AM 34.9703 127.5771 166° South  Level Estimated
12:20AM 34.8823 127.6029 166° South  Level Estimated
12:21AM 34.8398 127.6153 166° South  Level Estimated
12:22AM 34.8398 127.6153 North  Level Estimated
12:23AM 34.8398 127.6153 North  Level Estimated
12:24AM 34.8398 127.6153 North  Level Estimated
12:25AM 34.8398 127.6153 North  Level Estimated
12:26AM 34.8398 127.6153 North  Level Estimated
12:27AM 34.8398 127.6153 North  Level Estimated
12:28AM 34.8398 127.6153 North  Level Estimated
12:29AM 34.8398 127.6153 North  Level Estimated